Nuevo Albor Uno — EA8337 — position and weather

sailwx.info

Track history (hours):
 
Tides and Currents Weather Stations Pressure Air Temp Water Temp Dewpoint Dewpoint Depression Visibility Wind Speed Wind Dir Waves Ship Positions

Nuevo Albor Uno

Last reported at 2018-Jan-18 08:34 UTC. Time now 2018-Jan-18 16:15 UTC.
Position N 37°56' W 000°24'.

Length 23 m.

Type: Fishing. MMSI: 224162840.

Date/timePositionNaut miles runAvg speedWind from/ knotsBaromVisibWave heightAir tempDewpointWater temp
2018-Jan-18 08:34N 37°56' W 000°24'1 9.3
2018-Jan-18 08:27N 37°56' W 000°26'4 9.4
2018-Jan-18 08:00N 37°58' W 000°31'  
2018-Jan-12 13:59N 38°01' W 000°33'2 2.5
2018-Jan-12 13:16N 37°59' W 000°33'1 3.0
2018-Jan-12 12:56N 37°58' W 000°33'1 3.0
2018-Jan-12 12:30N 37°57' W 000°34'1 3.0
2018-Jan-12 12:00N 37°56' W 000°34'2 3.0
2018-Jan-12 11:30N 37°54' W 000°34'2 3.1
2018-Jan-12 11:00N 37°53' W 000°34'2 3.0
2018-Jan-12 10:24N 37°51' W 000°33'1 2.0
2018-Jan-12 09:54N 37°50' W 000°33'3 2.0
2018-Jan-12 08:35N 37°52' W 000°34'0 3.2
2018-Jan-12 08:30N 37°53' W 000°34'6 0.3
2018-Jan-11 10:43N 37°58' W 000°37'1 3.1
2018-Jan-11 10:30N 37°58' W 000°37'1 3.0
2018-Jan-11 10:00N 37°56' W 000°37'2 3.1
2018-Jan-11 09:30N 37°55' W 000°37'2 3.7
2018-Jan-11 08:54N 37°54' W 000°34'  
Track history (hours):
 
Tides and Currents Weather Stations Pressure Air Temp Water Temp Dewpoint Dewpoint Depression Visibility Wind Speed Wind Dir Waves Ship Positions

Nuevo Albor Uno

Last reported at 2018-Jan-18 08:34 UTC. Time now 2018-Jan-18 16:15 UTC.
Position N 37°56' W 000°24'.

Length 23 m.

Type: Fishing. MMSI: 224162840.

Date/timePositionNaut miles runAvg speedWind from/ knotsBaromVisibWave heightAir tempDewpointWater temp
2018-Jan-18 08:34N 37°56' W 000°24'1 9.3
2018-Jan-18 08:27N 37°56' W 000°26'4 9.4
2018-Jan-18 08:00N 37°58' W 000°31'  
2018-Jan-12 13:59N 38°01' W 000°33'2 2.5
2018-Jan-12 13:16N 37°59' W 000°33'1 3.0
2018-Jan-12 12:56N 37°58' W 000°33'1 3.0
2018-Jan-12 12:30N 37°57' W 000°34'1 3.0
2018-Jan-12 12:00N 37°56' W 000°34'2 3.0
2018-Jan-12 11:30N 37°54' W 000°34'2 3.1
2018-Jan-12 11:00N 37°53' W 000°34'2 3.0
2018-Jan-12 10:24N 37°51' W 000°33'1 2.0
2018-Jan-12 09:54N 37°50' W 000°33'3 2.0
2018-Jan-12 08:35N 37°52' W 000°34'0 3.2
2018-Jan-12 08:30N 37°53' W 000°34'6 0.3
2018-Jan-11 10:43N 37°58' W 000°37'1 3.1
2018-Jan-11 10:30N 37°58' W 000°37'1 3.0
2018-Jan-11 10:00N 37°56' W 000°37'2 3.1
2018-Jan-11 09:30N 37°55' W 000°37'2 3.7
2018-Jan-11 08:54N 37°54' W 000°34'  

Dump ship's entire track history